Time;durP1;ratioP1;P1;durP2;ratioP2;P2;SDS_P1;SDS_P2;PMS_P1;PMS_P2;Temp;Humidity;BMP_temperature;BMP_pressure;BME280_temperature;BME280_humidity;BME280_pressure;Samples;Min_cycle;Max_cycle;Signal;HPM_P1;HPM_P2
2022/11/18 00:02:18;;;;;;;22.02;14.80;;;;;;;-0.61;73.64;99307.83;1772738;81;25447;-60
2022/11/18 00:04:44;;;;;;;21.68;14.95;;;;;;;-0.61;73.55;99310.48;1772652;81;35194;-60
2022/11/18 00:07:10;;;;;;;22.42;12.98;;;;;;;-0.61;73.54;99303.84;1772642;80;25589;-58
2022/11/18 00:09:37;;;;;;;23.95;14.78;;;;;;;-0.62;73.36;99306.22;1772621;81;29554;-59
2022/11/18 00:14:48;;;;;;;21.00;14.18;;;;;;;-0.63;73.44;99304.60;1772645;81;25503;-60
2022/11/18 00:17:14;;;;;;;19.00;13.60;;;;;;;-0.63;73.47;99298.78;1772604;81;35103;-59
2022/11/18 00:19:41;;;;;;;22.75;14.73;;;;;;;-0.62;73.50;99294.27;1772673;81;25565;-58
2022/11/18 00:22:11;;;;;;;20.80;14.63;;;;;;;-0.61;73.45;99298.53;1772636;81;27437;-61
2022/11/18 00:24:38;;;;;;;17.75;13.35;;;;;;;-0.62;73.34;99299.03;1778639;80;25549;-60
2022/11/18 00:27:05;;;;;;;21.90;14.90;;;;;;;-0.63;73.36;99293.47;1778653;80;25404;-59
2022/11/18 00:29:31;;;;;;;19.87;13.55;;;;;;;-0.62;73.32;99296.92;1778673;80;26326;-60
2022/11/18 00:31:58;;;;;;;20.30;13.30;;;;;;;-0.62;73.24;99296.38;1778700;80;25628;-59
2022/11/18 00:34:26;;;;;;;23.85;14.70;;;;;;;-0.62;73.26;99292.93;1778764;80;28040;-59
2022/11/18 00:36:53;;;;;;;21.30;14.15;;;;;;;-0.64;73.18;99294.52;1778764;80;25388;-60
2022/11/18 00:39:20;;;;;;;23.80;15.10;;;;;;;-0.65;73.16;99296.89;1778850;80;25387;-59
2022/11/18 00:44:35;;;;;;;24.15;15.18;;;;;;;-0.65;73.16;99301.41;1712216;83;25523;-60
2022/11/18 00:47:02;;;;;;;22.87;14.47;;;;;;;-0.65;73.17;99292.12;1712083;83;29510;-57
2022/11/18 00:49:29;;;;;;;23.73;15.13;;;;;;;-0.65;73.23;99285.48;1711962;83;25679;-60
2022/11/18 00:51:55;;;;;;;25.25;14.87;;;;;;;-0.67;73.14;99283.61;1712059;83;25663;-60
2022/11/18 00:54:22;;;;;;;22.20;15.25;;;;;;;-0.67;73.23;99282.29;1711989;83;25621;-60
2022/11/18 00:56:48;;;;;;;22.32;14.65;;;;;;;-0.67;73.12;99279.63;1712034;83;25418;-59
2022/11/18 00:59:14;;;;;;;24.87;16.23;;;;;;;-0.67;73.04;99283.61;1712043;83;27299;-58
2022/11/18 01:01:40;;;;;;;22.70;15.13;;;;;;;-0.68;73.14;99283.33;1711935;83;27211;-58
2022/11/18 01:04:07;;;;;;;26.65;16.37;;;;;;;-0.69;73.14;99283.87;1712020;83;25603;-59
2022/11/18 01:06:33;;;;;;;25.45;16.07;;;;;;;-0.70;73.12;99280.94;1712000;83;25655;-59
2022/11/18 01:08:59;;;;;;;25.95;16.02;;;;;;;-0.69;73.20;99277.77;1712245;83;25507;-60
2022/11/18 01:14:10;;;;;;;23.87;15.68;;;;;;;-0.70;73.21;99275.63;1712089;83;25677;-60
2022/11/18 01:16:36;;;;;;;24.67;15.45;;;;;;;-0.70;73.36;99280.94;1770704;80;25545;-59
2022/11/18 01:19:02;;;;;;;23.60;15.32;;;;;;;-0.71;73.24;99275.91;1778785;80;26269;-60
2022/11/18 01:21:29;;;;;;;23.42;14.85;;;;;;;-0.71;73.19;99276.70;1778810;80;25457;-59
2022/11/18 01:23:55;;;;;;;24.67;16.07;;;;;;;-0.70;73.17;99270.84;1778669;80;27336;-60
2022/11/18 01:26:21;;;;;;;24.70;15.58;;;;;;;-0.71;73.20;99263.95;1778817;80;27337;-60
2022/11/18 01:28:47;;;;;;;23.35;15.63;;;;;;;-0.72;73.29;99268.98;1778793;80;25479;-59
2022/11/18 01:31:18;;;;;;;25.05;16.10;;;;;;;-0.70;73.23;99272.17;1778774;80;25667;-60
2022/11/18 01:33:46;;;;;;;27.22;15.93;;;;;;;-0.70;73.14;99262.34;1778790;80;25568;-60
2022/11/18 01:36:20;;;;;;;25.50;16.42;;;;;;;-0.70;73.07;99265.53;1778788;80;27394;-61
2022/11/18 01:38:48;;;;;;;25.90;16.48;;;;;;;-0.70;72.97;99265.00;1778753;80;25408;-60
2022/11/18 01:41:16;;;;;;;23.30;16.15;;;;;;;-0.70;73.00;99268.20;1778802;80;25452;-61
2022/11/18 01:44:02;;;;;;;23.30;15.90;;;;;;;-0.72;73.08;99259.16;1778803;80;27828;-61
2022/11/18 01:46:33;;;;;;;25.15;15.40;;;;;;;-0.71;73.24;99258.65;1778818;80;25445;-61
2022/11/18 01:49:10;;;;;;;26.12;16.67;;;;;;;-0.70;73.18;99251.72;1778781;80;27320;-59
2022/11/18 01:51:50;;;;;;;30.43;16.77;;;;;;;-0.68;73.10;99258.10;1778707;80;25443;-60
2022/11/18 01:54:24;;;;;;;27.65;17.07;;;;;;;-0.68;73.00;99251.46;1778835;80;25565;-60
2022/11/18 01:56:56;;;;;;;26.60;17.07;;;;;;;-0.70;73.04;99243.75;1778844;80;25697;-60
2022/11/18 01:59:31;;;;;;;24.25;16.05;;;;;;;-0.71;73.05;99240.05;1777877;80;25437;-60
2022/11/18 02:02:00;;;;;;;28.75;17.25;;;;;;;-0.71;73.04;99239.52;1777346;80;27496;-60
2022/11/18 02:04:27;;;;;;;24.57;17.42;;;;;;;-0.70;73.13;99238.98;1778685;80;25614;-59
2022/11/18 02:06:55;;;;;;;25.80;16.90;;;;;;;-0.70;73.10;99233.13;1778735;80;25376;-60
2022/11/18 02:09:22;;;;;;;28.23;16.85;;;;;;;-0.70;73.09;99235.78;1778762;80;26321;-60
2022/11/18 02:11:52;;;;;;;29.18;18.10;;;;;;;-0.69;73.09;99236.06;1778804;80;25494;-60
2022/11/18 02:14:29;;;;;;;25.43;17.30;;;;;;;-0.69;73.19;99237.94;1768604;80;27358;-60
2022/11/18 02:17:10;;;;;;;28.60;17.37;;;;;;;-0.69;73.29;99240.05;1768023;81;25585;-60
2022/11/18 02:20:00;;;;;;;28.95;17.52;;;;;;;-0.69;73.27;99241.38;1768146;81;25389;-61
2022/11/18 02:22:53;;;;;;;30.27;18.23;;;;;;;-0.68;73.20;99240.33;1768044;81;25611;-60
2022/11/18 02:26:01;;;;;;;26.60;16.55;;;;;;;-0.68;73.30;99240.84;1768162;81;25428;-59
2022/11/18 02:28:59;;;;;;;26.07;16.55;;;;;;;-0.68;73.41;99246.15;1767636;81;28026;-60
2022/11/18 02:31:52;;;;;;;24.63;16.05;;;;;;;-0.67;73.44;99241.91;1767896;81;27304;-60
2022/11/18 02:34:36;;;;;;;28.35;18.25;;;;;;;-0.67;73.41;99239.80;1766022;81;25624;-56
2022/11/18 02:37:20;;;;;;;30.88;18.80;;;;;;;-0.67;73.60;99239.80;1767884;81;25626;-60
2022/11/18 02:39:57;;;;;;;29.70;18.70;;;;;;;-0.67;73.54;99238.47;1767742;81;25392;-59
2022/11/18 02:42:28;;;;;;;28.45;17.67;;;;;;;-0.68;73.49;99239.00;1767917;81;27405;-59
2022/11/18 02:44:59;;;;;;;27.73;17.85;;;;;;;-0.67;73.54;99243.23;1768053;81;25584;-59
2022/11/18 02:47:29;;;;;;;27.77;17.52;;;;;;;-0.67;73.55;99243.23;1768087;81;25580;-59
2022/11/18 02:50:01;;;;;;;29.02;17.50;;;;;;;-0.67;73.67;99241.91;1744302;81;26290;-59
2022/11/18 02:52:28;;;;;;;28.73;17.12;;;;;;;-0.66;73.69;99246.17;1768129;81;25613;-59
2022/11/18 02:54:57;;;;;;;28.70;17.23;;;;;;;-0.65;73.71;99239.00;1768023;81;27362;-57
2022/11/18 02:57:26;;;;;;;28.27;18.25;;;;;;;-0.66;73.67;99236.09;1768121;81;25389;-58
2022/11/18 02:59:52;;;;;;;27.27;17.62;;;;;;;-0.67;73.61;99230.50;1768331;81;25622;-60
2022/11/18 03:02:20;;;;;;;29.95;17.67;;;;;;;-0.67;73.72;99234.48;1768010;81;25677;-58
2022/11/18 03:04:52;;;;;;;25.55;16.65;;;;;;;-0.67;73.88;99235.27;1768101;81;25444;-59
2022/11/18 03:07:29;;;;;;;24.87;16.23;;;;;;;-0.66;73.88;99238.75;1768081;81;27429;-60
2022/11/18 03:09:58;;;;;;;28.50;16.90;;;;;;;-0.64;73.71;99232.64;1768013;81;25451;-60
2022/11/18 03:13:09;;;;;;;27.20;15.55;;;;;;;-0.65;73.68;99226.51;1768043;81;25385;-60
2022/11/18 03:16:02;;;;;;;24.75;16.23;;;;;;;-0.65;73.67;99225.17;1768066;81;25787;-59
2022/11/18 03:18:50;;;;;;;26.52;16.27;;;;;;;-0.64;73.78;99224.67;1768098;81;25559;-59
2022/11/18 03:21:28;;;;;;;28.50;17.98;;;;;;;-0.65;74.01;99220.41;1768046;81;27398;-60
2022/11/18 03:24:09;;;;;;;28.15;16.90;;;;;;;-0.67;74.17;99220.66;1653015;86;25669;-60
2022/11/18 03:26:39;;;;;;;28.77;18.23;;;;;;;-0.66;74.39;99225.47;1656390;86;25664;-60
2022/11/18 03:29:20;;;;;;;31.57;18.37;;;;;;;-0.67;74.45;99223.31;1655639;86;25703;-59
2022/11/18 03:31:59;;;;;;;32.75;19.25;;;;;;;-0.65;74.45;99223.06;1655844;86;25622;-59
2022/11/18 03:34:48;;;;;;;34.30;20.17;;;;;;;-0.66;74.60;99219.62;1656502;86;27345;-60
2022/11/18 03:37:19;;;;;;;32.45;19.23;;;;;;;-0.66;74.86;99214.30;1656490;86;25624;-59
2022/11/18 03:39:50;;;;;;;28.32;18.17;;;;;;;-0.68;74.94;99216.43;1656551;86;25613;-59
2022/11/18 03:42:43;;;;;;;28.75;18.17;;;;;;;-0.68;75.03;99215.10;1656377;86;25772;-60
2022/11/18 03:45:27;;;;;;;28.70;16.87;;;;;;;-0.69;75.08;99215.36;1605551;88;25292;-59
2022/11/18 03:48:08;;;;;;;23.30;15.63;;;;;;;-0.71;75.07;99210.84;1605303;89;27340;-59
2022/11/18 03:50:42;;;;;;;25.45;15.48;;;;;;;-0.73;74.98;99203.13;1605208;89;25873;-59
2022/11/18 03:53:13;;;;;;;26.27;15.68;;;;;;;-0.74;75.08;99203.39;1606363;87;25500;-58
2022/11/18 03:55:44;;;;;;;23.50;15.95;;;;;;;-0.78;75.15;99207.09;1605259;89;25675;-58
2022/11/18 03:58:28;;;;;;;25.55;15.90;;;;;;;-0.79;75.18;99202.83;1605555;89;25652;-59
2022/11/18 04:01:02;;;;;;;22.20;15.38;;;;;;;-0.81;75.23;99202.30;1630821;85;26108;-59
2022/11/18 04:03:28;;;;;;;24.07;15.15;;;;;;;-0.83;75.11;99203.89;1687700;85;25807;-59
2022/11/18 04:06:00;;;;;;;22.50;15.68;;;;;;;-0.83;75.21;99208.41;1685704;82;25629;-59
2022/11/18 04:08:32;;;;;;;28.70;17.23;;;;;;;-0.85;75.23;99202.53;1642376;86;25857;-60
2022/11/18 04:11:09;;;;;;;25.32;16.27;;;;;;;-0.88;75.34;99205.20;1642868;86;25726;-61
2022/11/18 04:13:41;;;;;;;26.60;15.63;;;;;;;-0.88;75.43;99207.06;1612098;88;27371;-58
2022/11/18 04:16:08;;;;;;;25.43;16.07;;;;;;;-0.90;75.55;99204.66;1643274;86;25583;-59
2022/11/18 04:18:35;;;;;;;27.30;15.30;;;;;;;-0.89;75.64;99209.44;1617921;88;25518;-59
2022/11/18 04:22:15;;;;;;;25.65;16.10;;;;;;;-0.86;75.73;99209.71;1905565;74;34631;-60
2022/11/18 04:24:43;;;;;;;28.45;16.45;;;;;;;-0.93;75.76;99214.47;1860416;76;25147;-58
2022/11/18 04:27:09;;;;;;;26.27;16.67;;;;;;;-0.96;75.89;99206.48;1860143;76;28127;-59
2022/11/18 04:29:37;;;;;;;28.15;16.70;;;;;;;-0.96;75.95;99199.05;1859879;77;25559;-58
2022/11/18 04:32:06;;;;;;;29.45;16.60;;;;;;;-0.97;75.93;99208.06;1860121;76;25583;-58
2022/11/18 04:34:32;;;;;;;28.12;17.40;;;;;;;-0.99;75.91;99202.22;1860661;76;32431;-60
2022/11/18 04:36:58;;;;;;;26.90;16.52;;;;;;;-1.00;76.02;99208.60;1859941;76;25370;-59
2022/11/18 04:39:25;;;;;;;29.05;15.93;;;;;;;-1.01;76.16;99207.78;1859849;76;27465;-59
2022/11/18 04:41:57;;;;;;;27.80;15.98;;;;;;;-1.02;76.13;99206.20;1859723;77;25504;-58
2022/11/18 04:44:32;;;;;;;29.82;15.98;;;;;;;-1.01;76.28;99207.00;1859926;77;25355;-59
2022/11/18 04:47:03;;;;;;;24.02;14.55;;;;;;;-1.00;76.56;99204.62;1859644;76;25689;-59
2022/11/18 04:49:30;;;;;;;24.02;14.58;;;;;;;-1.01;76.78;99203.80;1859909;76;25291;-59
2022/11/18 04:51:57;;;;;;;26.48;15.68;;;;;;;-1.01;76.86;99198.49;1859878;76;27015;-61
2022/11/18 04:54:25;;;;;;;27.20;16.17;;;;;;;-1.00;76.93;99201.43;1859778;76;25387;-58
2022/11/18 04:56:52;;;;;;;26.77;14.93;;;;;;;-1.02;76.93;99206.71;1859873;76;25423;-59
2022/11/18 04:59:23;;;;;;;22.75;14.68;;;;;;;-1.04;76.88;99211.48;1859830;76;25357;-59
2022/11/18 05:01:50;;;;;;;22.67;14.00;;;;;;;-1.07;77.13;99210.67;1859806;77;25509;-59
2022/11/18 05:04:21;;;;;;;20.72;13.03;;;;;;;-1.10;77.06;99213.86;1859857;77;27409;-55
2022/11/18 05:06:48;;;;;;;22.42;13.72;;;;;;;-1.14;76.98;99209.61;1859690;77;25785;-58
2022/11/18 05:09:16;;;;;;;23.65;13.60;;;;;;;-1.16;77.21;99208.53;1859792;77;25390;-58
2022/11/18 05:14:28;;;;;;;21.80;13.38;;;;;;;-1.18;77.47;99209.30;1758589;81;25617;-58
2022/11/18 05:16:56;;;;;;;19.95;12.07;;;;;;;-1.20;77.58;99204.78;1758562;81;27639;-58
2022/11/18 05:19:22;;;;;;;22.13;12.60;;;;;;;-1.21;77.67;99201.05;1758452;81;25613;-58
2022/11/18 05:21:49;;;;;;;21.00;12.45;;;;;;;-1.23;77.59;99207.16;1750883;80;25561;-59
2022/11/18 05:24:16;;;;;;;20.65;12.82;;;;;;;-1.24;77.50;99205.03;1747728;82;25695;-59
2022/11/18 05:26:42;;;;;;;22.40;12.88;;;;;;;-1.25;77.49;99204.75;1747875;82;25593;-58
2022/11/18 05:29:09;;;;;;;20.90;12.43;;;;;;;-1.26;77.72;99205.01;1747826;82;27597;-58
2022/11/18 05:31:36;;;;;;;24.47;14.43;;;;;;;-1.26;77.71;99202.36;1747591;82;25734;-58
2022/11/18 05:34:02;;;;;;;22.10;13.22;;;;;;;-1.24;78.01;99202.89;1747311;82;25633;-59
2022/11/18 05:36:28;;;;;;;24.18;12.68;;;;;;;-1.27;77.96;99206.08;1747348;82;25485;-59
2022/11/18 05:39:00;;;;;;;23.60;13.40;;;;;;;-1.28;78.05;99205.80;1747366;82;25591;-60
2022/11/18 05:44:11;;;;;;;18.92;11.70;;;;;;;-1.31;78.04;99199.16;1747182;81;25485;-58
2022/11/18 05:46:37;;;;;;;19.10;11.80;;;;;;;-1.30;78.15;99196.77;1747263;82;25523;-59
2022/11/18 05:49:04;;;;;;;20.62;11.85;;;;;;;-1.33;78.04;99200.75;1747248;82;27302;-58
2022/11/18 05:51:30;;;;;;;15.20;9.05;;;;;;;-1.33;78.03;99195.95;1821276;78;25372;-59
2022/11/18 05:53:57;;;;;;;14.20;8.75;;;;;;;-1.37;78.01;99193.02;1823203;78;29576;-62
2022/11/18 05:56:40;;;;;;;12.10;8.18;;;;;;;-1.39;77.90;99197.78;1823224;78;25371;-60
2022/11/18 05:59:07;;;;;;;13.60;8.73;;;;;;;-1.41;77.79;99203.09;1823170;78;25364;-59
2022/11/18 06:02:00;;;;;;;11.78;7.83;;;;;;;-1.42;78.01;99194.31;1823145;78;25570;-59
2022/11/18 06:04:40;;;;;;;11.73;6.80;;;;;;;-1.42;77.97;99202.80;1819345;78;25392;-60
2022/11/18 06:07:15;;;;;;;11.93;7.87;;;;;;;-1.44;78.07;99204.39;1821039;78;27530;-58
2022/11/18 06:09:46;;;;;;;12.43;7.78;;;;;;;-1.42;78.08;99208.11;1823149;78;25356;-58
2022/11/18 06:12:19;;;;;;;12.00;7.45;;;;;;;-1.44;78.13;99209.69;1823197;78;25675;-59
2022/11/18 06:15:00;;;;;;;13.03;8.00;;;;;;;-1.46;78.05;99205.68;1823157;78;25529;-59
2022/11/18 06:17:34;;;;;;;11.95;7.50;;;;;;;-1.47;78.13;99209.41;1822497;78;25533;-59
2022/11/18 06:20:03;;;;;;;14.28;7.35;;;;;;;-1.48;78.14;99207.80;1823165;78;27571;-59
2022/11/18 06:22:30;;;;;;;11.80;7.85;;;;;;;-1.50;78.23;99205.39;1858228;76;25584;-61
2022/11/18 06:24:56;;;;;;;13.38;8.25;;;;;;;-1.50;78.34;99208.05;1863086;76;25584;-59
2022/11/18 06:27:22;;;;;;;14.83;7.90;;;;;;;-1.49;78.55;99208.87;1863062;77;25383;-61
2022/11/18 06:29:48;;;;;;;12.50;8.50;;;;;;;-1.48;78.68;99207.80;1863142;76;25437;-64
2022/11/18 06:32:14;;;;;;;14.43;8.40;;;;;;;-1.48;78.96;99213.92;1863111;76;27439;-60
2022/11/18 06:34:41;;;;;;;13.35;8.73;;;;;;;-1.46;79.12;99212.31;1843560;77;25599;-60
2022/11/18 06:37:17;;;;;;;13.25;8.38;;;;;;;-1.45;79.28;99213.38;1863164;77;25521;-60
2022/11/18 06:39:43;;;;;;;15.08;9.43;;;;;;;-1.46;79.20;99218.95;1862995;76;25533;-60
2022/11/18 06:42:10;;;;;;;15.00;8.78;;;;;;;-1.45;79.56;99218.69;1863060;76;25500;-59
2022/11/18 06:44:36;;;;;;;15.35;9.15;;;;;;;-1.45;79.66;99217.36;1863090;76;27472;-62
2022/11/18 06:47:04;;;;;;;14.05;8.90;;;;;;;-1.45;79.59;99213.38;1862957;77;25350;-60
2022/11/18 06:49:30;;;;;;;14.73;9.03;;;;;;;-1.42;79.87;99218.19;1863100;77;25424;-62
2022/11/18 06:51:56;;;;;;;14.38;9.35;;;;;;;-1.41;79.92;99215.02;1862986;76;25395;-62
2022/11/18 06:54:23;;;;;;;16.40;9.53;;;;;;;-1.40;79.67;99223.23;1863072;76;25572;-61
2022/11/18 06:56:49;;;;;;;16.73;10.23;;;;;;;-1.40;79.87;99221.38;1863135;76;27611;-61
2022/11/18 06:59:22;;;;;;;16.27;10.20;;;;;;;-1.39;79.95;99220.33;1862955;76;25374;-61
2022/11/18 07:01:43;;;;;;;16.90;10.53;;;;;;;-1.36;79.91;99229.11;1862433;76;27350;-62
2022/11/18 07:04:10;;;;;;;20.05;11.75;;;;;;;-1.36;79.87;99229.65;1863042;76;25582;-60
2022/11/18 07:06:36;;;;;;;17.87;11.68;;;;;;;-1.35;80.08;99228.58;1863112;76;32683;-61
2022/11/18 07:09:06;;;;;;;16.23;10.80;;;;;;;-1.35;80.12;99224.59;1863029;76;27470;-61
2022/11/18 07:11:33;;;;;;;16.40;9.68;;;;;;;-1.34;80.28;99226.20;1862994;77;25550;-59
2022/11/18 07:14:00;;;;;;;16.37;10.23;;;;;;;-1.32;80.42;99226.20;1863051;77;25502;-61
2022/11/18 07:16:26;;;;;;;16.77;10.23;;;;;;;-1.31;80.29;99228.34;1863084;77;25556;-60
2022/11/18 07:18:55;;;;;;;15.48;10.18;;;;;;;-1.28;80.36;99228.34;1863110;76;25529;-60
2022/11/18 07:21:25;;;;;;;15.45;9.78;;;;;;;-1.28;80.34;99227.81;1859534;77;27176;-61
2022/11/18 07:23:53;;;;;;;15.18;9.83;;;;;;;-1.28;80.34;99225.16;1850622;77;25545;-59
2022/11/18 07:26:20;;;;;;;15.55;9.45;;;;;;;-1.25;80.37;99229.17;1850699;77;25596;-60
2022/11/18 07:28:47;;;;;;;16.30;10.03;;;;;;;-1.23;80.47;99233.69;1850643;77;25837;-60
2022/11/18 07:31:17;;;;;;;14.33;9.68;;;;;;;-1.21;80.55;99231.06;1850745;77;25643;-60
2022/11/18 07:33:44;;;;;;;17.75;10.03;;;;;;;-1.17;80.60;99234.79;1850844;77;27381;-60
2022/11/18 07:36:18;;;;;;;14.50;9.35;;;;;;;-1.16;80.55;99232.92;1850633;77;25772;-58
2022/11/18 07:38:45;;;;;;;15.60;10.13;;;;;;;-1.10;80.68;99247.04;1850785;76;25558;-72
2022/11/18 07:41:25;;;;;;;17.50;10.00;;;;;;;-1.10;80.53;99238.55;1850640;77;25624;-72
2022/11/18 07:43:54;;;;;;;15.55;9.48;;;;;;;-1.06;80.50;99236.95;1850835;77;25366;-72
2022/11/18 07:46:31;;;;;;;14.43;8.98;;;;;;;-1.05;80.27;99235.12;1851031;76;27519;-70
2022/11/18 07:49:00;;;;;;;16.80;10.08;;;;;;;-1.02;80.24;99233.26;1850684;77;25348;-69
2022/11/18 07:51:31;;;;;;;13.03;8.78;;;;;;;-1.00;80.32;99237.27;1850726;76;25571;-73
2022/11/18 07:53:57;;;;;;;14.45;8.90;;;;;;;-0.93;80.32;99243.67;1850384;77;25535;-71
2022/11/18 07:56:24;;;;;;;12.90;8.38;;;;;;;-0.92;80.16;99239.94;1850522;76;25729;-70
2022/11/18 07:58:55;;;;;;;16.52;9.45;;;;;;;-0.87;80.03;99239.17;1850749;76;28096;-70
2022/11/18 08:01:27;;;;;;;13.53;8.43;;;;;;;-0.84;80.11;99237.34;1850552;77;25359;-69
2022/11/18 08:03:54;;;;;;;13.53;8.78;;;;;;;-0.86;79.63;99246.88;1850734;77;25376;-69
2022/11/18 08:06:20;;;;;;;14.33;8.28;;;;;;;-0.84;79.51;99237.34;1850693;77;25539;-71
2022/11/18 08:08:48;;;;;;;15.78;9.08;;;;;;;-0.84;79.42;99250.07;1850781;76;25361;-68
2022/11/18 08:11:17;;;;;;;13.72;8.60;;;;;;;-0.83;79.45;99243.72;1850778;76;28162;-69
2022/11/18 08:13:44;;;;;;;15.18;10.28;;;;;;;-0.78;79.45;99250.38;1850613;77;25533;-71
2022/11/18 08:16:15;;;;;;;13.05;9.03;;;;;;;-0.75;79.44;99257.02;1850680;77;25413;-70
2022/11/18 08:18:42;;;;;;;14.98;9.00;;;;;;;-0.73;79.26;99255.42;1850088;77;25479;-69
2022/11/18 08:21:09;;;;;;;16.35;9.60;;;;;;;-0.73;79.12;99259.41;1851233;77;25414;-71
2022/11/18 08:23:35;;;;;;;13.95;8.55;;;;;;;-0.71;79.00;99260.77;1862990;75;28106;-68
2022/11/18 08:26:13;;;;;;;17.60;10.20;;;;;;;-0.68;79.16;99260.76;1862986;76;25358;-70
2022/11/18 08:28:41;;;;;;;12.65;8.70;;;;;;;-0.64;79.06;99259.20;1863039;76;25600;-68
2022/11/18 08:31:19;;;;;;;13.78;7.65;;;;;;;-0.64;78.83;99261.31;1862972;77;25625;-68
2022/11/18 08:33:45;;;;;;;11.48;8.03;;;;;;;-0.64;78.44;99265.84;1862101;77;25614;-70
2022/11/18 08:36:17;;;;;;;14.38;8.53;;;;;;;-0.65;78.36;99269.54;1863000;77;27524;-71
2022/11/18 08:38:44;;;;;;;12.80;8.55;;;;;;;-0.65;78.33;99275.64;1862385;76;25568;-68
2022/11/18 08:41:38;;;;;;;12.70;8.20;;;;;;;-0.64;78.26;99279.91;1862949;76;25463;-70
2022/11/18 08:44:06;;;;;;;11.75;8.05;;;;;;;-0.64;78.16;99276.46;1863000;76;25523;-69
2022/11/18 08:46:32;;;;;;;9.70;7.17;;;;;;;-0.64;77.97;99280.45;1863006;77;25618;-70
2022/11/18 08:48:59;;;;;;;11.50;7.47;;;;;;;-0.65;77.92;99281.49;1862985;77;27465;-69
2022/11/18 08:51:26;;;;;;;10.70;7.28;;;;;;;-0.66;77.92;99283.90;1862887;77;25351;-70
2022/11/18 08:53:53;;;;;;;9.33;6.72;;;;;;;-0.64;77.92;99285.76;1862990;76;25508;-70
2022/11/18 08:56:22;;;;;;;12.15;7.42;;;;;;;-0.65;77.86;99280.95;1862957;76;25470;-70
2022/11/18 08:58:48;;;;;;;22.22;11.57;;;;;;;-0.62;77.75;99291.61;1863145;77;25614;-69
2022/11/18 09:01:15;;;;;;;13.25;7.92;;;;;;;-0.62;77.87;99287.08;1862938;77;28062;-72
2022/11/18 09:03:41;;;;;;;11.75;6.97;;;;;;;-0.59;77.97;99288.44;1862900;77;25592;-69
2022/11/18 09:06:15;;;;;;;10.30;6.83;;;;;;;-0.55;77.97;99292.70;1863003;77;25371;-69
2022/11/18 09:08:42;;;;;;;10.90;6.83;;;;;;;-0.52;77.84;99289.53;1863099;77;25591;-70
2022/11/18 09:11:12;;;;;;;11.65;8.40;;;;;;;-0.56;77.35;99290.58;1863171;76;25459;-69
2022/11/18 09:13:39;;;;;;;9.83;7.45;;;;;;;-0.54;77.26;99292.44;1863156;77;27502;-68
2022/11/18 09:16:06;;;;;;;10.28;7.22;;;;;;;-0.55;76.89;99288.71;1863095;76;25354;-69
2022/11/18 09:18:32;;;;;;;8.60;5.97;;;;;;;-0.60;76.47;99292.92;1863190;76;25592;-70
2022/11/18 09:21:03;;;;;;;9.18;6.85;;;;;;;-0.63;76.45;99293.98;1863095;76;25537;-69
2022/11/18 09:23:32;;;;;;;11.60;7.10;;;;;;;-0.64;76.45;99297.17;1853444;77;25494;-69
2022/11/18 09:26:08;;;;;;;10.75;7.33;;;;;;;-0.63;76.36;99292.65;1850914;77;27458;-72
2022/11/18 09:28:34;;;;;;;10.70;7.20;;;;;;;-0.65;76.17;99294.77;1850794;76;25801;-72
2022/11/18 09:31:10;;;;;;;9.68;6.67;;;;;;;-0.65;76.24;99297.43;1850815;77;25545;-71
2022/11/18 09:33:40;;;;;;;9.08;6.00;;;;;;;-0.65;76.32;99296.89;1849987;77;25459;-78
2022/11/18 09:36:17;;;;;;;8.93;6.35;;;;;;;-0.64;76.40;99291.86;1851195;77;25433;-74
2022/11/18 09:38:44;;;;;;;10.05;7.05;;;;;;;-0.63;76.17;99296.12;1849461;76;27462;-72
2022/11/18 09:41:46;;;;;;;10.00;6.37;;;;;;;-0.63;76.03;99290.00;1850734;76;25366;-73
2022/11/18 09:44:45;;;;;;;10.53;7.65;;;;;;;-0.62;76.07;99290.28;1850495;77;25554;-72
2022/11/18 09:47:31;;;;;;;10.80;6.47;;;;;;;-0.62;76.00;99284.42;1850953;76;25474;-75
2022/11/18 09:50:08;;;;;;;10.05;6.92;;;;;;;-0.62;75.92;99280.98;1850900;77;25551;-73
2022/11/18 09:53:11;;;;;;;13.50;8.08;;;;;;;-0.59;76.01;99285.78;1850378;77;28061;-76
2022/11/18 09:55:39;;;;;;;11.90;8.30;;;;;;;-0.58;76.02;99274.08;1850802;77;25562;-73
2022/11/18 09:58:09;;;;;;;12.82;7.65;;;;;;;-0.54;76.00;99273.05;1851135;76;25121;-72
2022/11/18 10:00:35;;;;;;;9.53;6.90;;;;;;;-0.52;75.80;99266.95;1850978;77;25778;-72
2022/11/18 10:03:27;;;;;;;13.20;7.80;;;;;;;-0.49;75.86;99270.41;1851516;76;25418;-72
2022/11/18 10:06:10;;;;;;;10.65;7.45;;;;;;;-0.48;75.74;99264.81;1796529;79;27682;-73
2022/11/18 10:08:53;;;;;;;10.15;7.37;;;;;;;-0.45;75.64;99269.61;1795214;79;25532;-75
2022/11/18 10:11:23;;;;;;;10.20;7.05;;;;;;;-0.41;75.65;99271.22;1792493;79;25568;-71
2022/11/18 10:14:16;;;;;;;9.60;7.05;;;;;;;-0.36;75.55;99278.41;1794121;79;25508;-74
2022/11/18 10:17:05;;;;;;;10.58;7.72;;;;;;;-0.33;75.31;99282.67;1795203;79;25625;-73
2022/11/18 10:19:46;;;;;;;10.08;6.87;;;;;;;-0.30;75.24;99284.81;1795163;79;28197;-76
2022/11/18 10:22:33;;;;;;;10.23;7.25;;;;;;;-0.31;74.67;99285.86;1793939;79;25808;-74
2022/11/18 10:25:00;;;;;;;7.12;5.47;;;;;;;-0.33;74.71;99285.33;1800820;79;25553;-72
2022/11/18 10:27:43;;;;;;;6.83;5.20;;;;;;;-0.31;74.48;99289.06;1800610;79;25659;-75
2022/11/18 10:30:18;;;;;;;8.75;6.33;;;;;;;-0.30;74.59;99289.34;1800726;79;25773;-75
2022/11/18 10:32:58;;;;;;;8.65;5.60;;;;;;;-0.29;74.50;99290.91;1800393;79;27473;-68
2022/11/18 10:35:30;;;;;;;8.88;5.95;;;;;;;-0.27;74.14;99290.15;1795729;79;25593;-68
2022/11/18 10:38:06;;;;;;;10.43;6.37;;;;;;;-0.27;74.15;99294.92;1800654;79;25534;-71
2022/11/18 10:40:36;;;;;;;9.63;6.92;;;;;;;-0.25;74.12;99294.13;1834575;77;25636;-70
2022/11/18 10:43:02;;;;;;;;;;;;;;;-0.22;74.34;99294.94;1857805;77;25539;-74
2022/11/18 10:45:31;;;;;;;10.78;6.92;;;;;;;-0.17;74.00;99300.81;1856930;77;27472;-80
2022/11/18 10:48:15;;;;;;;14.33;7.55;;;;;;;-0.18;73.91;99302.39;1856805;77;25678;-69
2022/11/18 10:50:49;;;;;;;12.10;7.12;;;;;;;-0.18;73.67;99302.39;1803518;79;25601;-58
2022/11/18 10:53:37;;;;;;;10.82;5.95;;;;;;;-0.20;73.50;99306.10;1803458;79;26100;-60
2022/11/18 10:56:07;;;;;;;11.50;6.85;;;;;;;-0.14;73.63;99306.11;1803512;79;25642;-66
2022/11/18 10:58:39;;;;;;;9.28;6.72;;;;;;;-0.08;73.75;99309.06;1803519;79;27533;-66
2022/11/18 11:01:23;;;;;;;11.45;7.70;;;;;;;-0.06;73.44;99312.25;1803213;79;25677;-66
2022/11/18 11:04:13;;;;;;;14.87;9.43;;;;;;;-0.05;73.36;99309.34;1803558;79;25592;-74
2022/11/18 11:06:39;;;;;;;10.48;7.15;;;;;;;-0.03;73.28;99308.54;1785338;80;26249;-68
2022/11/18 11:09:28;;;;;;;13.38;7.00;;;;;;;-0.01;73.14;99311.73;1785226;80;25538;-69
2022/11/18 11:12:05;;;;;;;9.40;6.20;;;;;;;-0.01;72.86;99316.25;1785426;80;27489;-69
2022/11/18 11:14:55;;;;;;;10.20;5.65;;;;;;;0.02;73.02;99319.73;1784204;80;25498;-66
2022/11/18 11:20:44;;;;;;;8.68;5.92;;;;;;;0.03;72.72;99317.86;1785193;80;25613;-69
2022/11/18 11:23:14;;;;;;;8.95;6.28;;;;;;;0.07;72.92;99323.72;1789090;79;25890;-72
2022/11/18 11:25:49;;;;;;;9.20;5.42;;;;;;;0.11;73.06;99318.13;1795841;79;27623;-71
2022/11/18 11:28:27;;;;;;;8.00;5.75;;;;;;;0.16;72.65;99326.66;1804240;79;25711;-70
2022/11/18 11:31:01;;;;;;;7.83;5.67;;;;;;;0.17;72.22;99322.92;1806383;79;25488;-70
2022/11/18 11:33:45;;;;;;;9.03;6.53;;;;;;;0.16;72.16;99318.68;1792665;79;25848;-69
2022/11/18 11:36:17;;;;;;;8.38;5.55;;;;;;;0.26;72.42;99324.02;1800968;79;25576;-67
2022/11/18 11:39:34;;;;;;;10.23;7.05;;;;;;;0.38;72.96;99318.98;1806105;79;29628;-60
2022/11/18 11:42:21;;;;;;;11.88;7.42;;;;;;;0.53;72.81;99319.78;1790329;77;25281;-61
2022/11/18 11:45:05;;;;;;;10.98;7.03;;;;;;;0.71;72.46;99319.76;1850720;77;25370;-61
2022/11/18 11:48:02;;;;;;;12.03;7.67;;;;;;;0.77;71.61;99316.58;1850599;77;25521;-61
2022/11/18 11:50:54;;;;;;;9.75;6.25;;;;;;;0.78;71.21;99314.16;1850673;77;25382;-61
2022/11/18 11:54:01;;;;;;;8.80;5.97;;;;;;;0.77;70.69;99317.91;1850766;77;28023;-60
2022/11/18 11:56:54;;;;;;;8.48;6.35;;;;;;;0.76;70.46;99327.49;1850458;77;27492;-61
2022/11/18 11:59:51;;;;;;;9.15;6.33;;;;;;;0.73;70.18;99328.81;1850777;76;25594;-61
2022/11/18 12:02:37;;;;;;;9.65;6.33;;;;;;;0.67;69.97;99325.36;1826794;77;25582;-62
2022/11/18 12:05:18;;;;;;;10.90;6.90;;;;;;;0.66;70.00;99325.63;1850379;76;25447;-63
2022/11/18 12:07:57;;;;;;;9.80;6.22;;;;;;;0.61;69.81;99325.09;1850748;77;29713;-61